Time;durP1;ratioP1;P1;durP2;ratioP2;P2;SDS_P1;SDS_P2;PMS_P1;PMS_P2;Temp;Humidity;BMP_temperature;BMP_pressure;BME280_temperature;BME280_humidity;BME280_pressure;Samples;Min_cycle;Max_cycle;Signal;HPM_P1;HPM_P2
2021/10/09 00:01:37;;;;;;;32.80;15.70;;;;;;;4.78;47.26;100605.41;113314;1195;108762;-67
2021/10/09 00:04:09;;;;;;;36.30;15.40;;;;;;;4.77;47.25;100604.57;113143;1196;99005;-69
2021/10/09 00:06:37;;;;;;;37.40;15.30;;;;;;;4.75;47.37;100602.84;113328;1195;96388;-69
2021/10/09 00:09:05;;;;;;;36.00;15.60;;;;;;;4.73;47.36;100600.78;113360;1195;112186;-70
2021/10/09 00:11:38;;;;;;;34.90;16.10;;;;;;;4.72;47.50;100602.23;113315;1195;96370;-68
2021/10/09 00:14:15;;;;;;;36.20;16.50;;;;;;;4.70;47.54;100598.05;113250;1196;108108;-68
2021/10/09 00:16:48;;;;;;;36.90;16.70;;;;;;;4.68;47.68;100595.99;113306;1196;99063;-66
2021/10/09 00:19:22;;;;;;;;;;;;;;;4.64;47.73;100597.83;113345;1194;96490;-69
2021/10/09 00:21:50;;;;;;;39.80;16.00;;;;;;;4.59;47.88;100595.48;113302;1195;112992;-68
2021/10/09 00:24:23;;;;;;;38.60;16.60;;;;;;;4.57;47.76;100595.70;113046;1196;99004;-70
2021/10/09 00:26:50;;;;;;;38.80;18.30;;;;;;;4.56;47.74;100595.02;113341;1196;107216;-68
2021/10/09 00:29:19;;;;;;;41.20;16.60;;;;;;;4.53;47.84;100595.80;113318;1193;98979;-69
2021/10/09 00:31:46;;;;;;;37.30;17.50;;;;;;;4.50;47.80;100592.55;114501;1193;96988;-69
2021/10/09 00:34:14;;;;;;;42.00;17.70;;;;;;;4.46;47.89;100592.48;113333;1193;113086;-68
2021/10/09 00:36:42;;;;;;;37.40;16.50;;;;;;;4.39;47.84;100591.05;113373;1193;99622;-68
2021/10/09 00:39:11;;;;;;;37.00;16.50;;;;;;;4.33;48.02;100595.89;113328;1193;108259;-68
2021/10/09 00:41:38;;;;;;;44.80;18.70;;;;;;;4.28;47.96;100600.23;113455;1193;96468;-68
2021/10/09 00:44:13;;;;;;;43.80;17.90;;;;;;;4.23;48.10;100595.08;113317;1193;98921;-68
2021/10/09 00:46:46;;;;;;;41.50;17.90;;;;;;;4.20;47.98;100591.81;113430;1193;111266;-68
2021/10/09 00:49:17;;;;;;;41.70;18.20;;;;;;;4.16;48.29;100590.29;113340;1193;98811;-68
2021/10/09 00:51:51;;;;;;;42.50;19.10;;;;;;;4.14;48.29;100594.91;113340;1193;108076;-70
2021/10/09 00:54:25;;;;;;;38.90;17.60;;;;;;;4.09;48.12;100594.48;113262;1195;98924;-68
2021/10/09 00:57:01;;;;;;;;;;;;;;;4.07;48.19;100599.09;113355;1195;98936;-69
2021/10/09 00:59:29;;;;;;;40.30;17.80;;;;;;;4.02;48.49;100595.52;113185;1195;112525;-69
2021/10/09 01:02:06;;;;;;;36.30;16.30;;;;;;;4.00;48.19;100593.11;113332;1195;98983;-70
2021/10/09 01:04:39;;;;;;;36.60;17.40;;;;;;;3.97;48.38;100590.54;113274;1195;107162;-69
2021/10/09 01:07:07;;;;;;;47.50;19.20;;;;;;;3.93;48.59;100588.50;113285;1196;96378;-70
2021/10/09 01:09:35;;;;;;;43.50;20.60;;;;;;;3.89;48.67;100589.11;113338;1195;98906;-69
2021/10/09 01:12:08;;;;;;;52.70;23.60;;;;;;;3.86;48.53;100590.07;113346;1195;112622;-68
2021/10/09 01:14:40;;;;;;;49.40;22.10;;;;;;;3.83;48.82;100589.08;113341;1196;99013;-68
2021/10/09 01:17:16;;;;;;;47.80;21.50;;;;;;;3.79;48.65;100592.48;113327;1195;108031;-69
2021/10/09 01:19:48;;;;;;;43.10;21.10;;;;;;;3.71;48.77;100589.13;113280;1195;99005;-68
2021/10/09 01:22:16;;;;;;;44.40;20.50;;;;;;;3.63;48.86;100590.16;113311;1195;99011;-67
2021/10/09 01:24:43;;;;;;;47.60;20.40;;;;;;;3.57;48.66;100584.66;113172;1196;112921;-68
2021/10/09 01:27:16;;;;;;;44.00;21.30;;;;;;;3.55;48.97;100585.77;113273;1195;96429;-67
2021/10/09 01:29:48;;;;;;;40.30;19.70;;;;;;;3.53;48.87;100581.39;113194;1196;108093;-68
2021/10/09 01:32:16;;;;;;;41.40;18.90;;;;;;;3.51;48.77;100581.63;113315;1195;98926;-68
2021/10/09 01:34:48;;;;;;;43.30;18.30;;;;;;;3.49;48.85;100575.70;113193;1195;98965;-68
2021/10/09 01:37:19;;;;;;;41.60;18.10;;;;;;;3.48;48.98;100574.84;113305;1195;113215;-68
2021/10/09 01:39:53;;;;;;;36.00;16.50;;;;;;;3.46;49.09;100574.54;113177;1196;98927;-69
2021/10/09 01:42:22;;;;;;;35.60;16.20;;;;;;;3.41;48.89;100574.78;113298;1197;106606;-68
2021/10/09 01:44:54;;;;;;;41.10;16.80;;;;;;;3.37;49.01;100579.95;113353;1196;99006;-66
2021/10/09 01:47:22;;;;;;;38.90;17.60;;;;;;;3.33;49.23;100584.23;113287;1195;99012;-68
2021/10/09 01:49:50;;;;;;;36.60;16.40;;;;;;;3.29;49.13;100578.69;113330;1194;113125;-67
2021/10/09 01:52:18;;;;;;;36.10;17.30;;;;;;;3.25;49.36;100580.88;113192;1195;99152;-66
2021/10/09 01:54:45;;;;;;;32.70;17.00;;;;;;;3.19;49.40;100577.66;113301;1195;108846;-68
2021/10/09 01:57:13;;;;;;;37.20;18.30;;;;;;;3.13;49.32;100579.50;113363;1196;98943;-67
2021/10/09 01:59:41;;;;;;;36.30;17.60;;;;;;;3.11;49.37;100576.90;113356;1195;98917;-67
2021/10/09 02:02:09;;;;;;;37.20;17.60;;;;;;;3.09;49.38;100577.30;113165;1179;112923;-67
2021/10/09 02:04:41;;;;;;;41.20;18.30;;;;;;;3.07;49.33;100571.38;113305;1195;98999;-68
2021/10/09 02:07:14;;;;;;;36.30;17.80;;;;;;;3.05;49.47;100571.58;113364;1195;107776;-71
2021/10/09 02:09:46;;;;;;;41.90;17.30;;;;;;;3.03;49.49;100569.70;113286;1195;96365;-68
2021/10/09 02:12:18;;;;;;;44.70;19.60;;;;;;;3.00;49.65;100566.41;113156;1196;98295;-70
2021/10/09 02:14:54;;;;;;;36.50;18.50;;;;;;;2.98;49.73;100568.37;113336;1195;113117;-68
2021/10/09 02:28:09;;;;;;;35.40;18.50;;;;;;;2.85;49.67;100555.64;113376;1196;113109;-67
2021/10/09 02:30:38;;;;;;;34.10;16.70;;;;;;;2.82;50.15;100558.83;113383;1195;98964;-67
2021/10/09 02:33:15;;;;;;;35.50;15.90;;;;;;;2.81;50.10;100563.23;113292;1195;108137;-69
2021/10/09 02:35:48;;;;;;;31.30;15.50;;;;;;;2.78;50.02;100560.30;113347;1196;98297;-67
2021/10/09 02:38:17;;;;;;;33.80;15.80;;;;;;;2.75;49.87;100561.92;113359;1196;96483;-69
2021/10/09 02:40:46;;;;;;;36.40;16.70;;;;;;;2.74;49.91;100566.15;113278;1179;113086;-67
2021/10/09 02:43:14;;;;;;;36.20;15.80;;;;;;;2.72;50.50;100567.40;113361;1195;98924;-68
2021/10/09 02:45:46;;;;;;;36.40;16.20;;;;;;;2.69;50.25;100563.42;113373;1196;107871;-69
2021/10/09 02:48:18;;;;;;;37.40;15.70;;;;;;;2.65;50.47;100566.81;113374;1195;96344;-69
2021/10/09 02:50:50;;;;;;;34.90;16.50;;;;;;;2.62;50.61;100566.88;113402;1195;98916;-67
2021/10/09 02:53:18;;;;;;;32.10;15.50;;;;;;;2.58;50.43;100566.40;113183;1193;112851;-68
2021/10/09 02:55:51;;;;;;;36.60;16.50;;;;;;;2.56;50.32;100567.14;113428;1193;98991;-68
2021/10/09 02:58:18;;;;;;;38.20;17.30;;;;;;;2.54;50.48;100565.76;113401;1193;108061;-67
2021/10/09 03:00:46;;;;;;;38.40;17.50;;;;;;;2.51;50.62;100563.17;113362;1196;98874;-69
2021/10/09 03:03:18;;;;;;;37.70;15.80;;;;;;;2.49;50.44;100563.89;113391;1196;98370;-67
2021/10/09 03:05:46;;;;;;;44.80;18.10;;;;;;;2.47;50.46;100566.21;113334;1195;113122;-68
2021/10/09 03:08:14;;;;;;;35.20;17.60;;;;;;;2.45;50.62;100568.36;113363;1195;98952;-68
2021/10/09 03:10:46;;;;;;;36.40;17.00;;;;;;;2.43;50.70;100568.21;113404;1193;108295;-69
2021/10/09 03:13:14;;;;;;;41.50;18.10;;;;;;;2.41;50.85;100567.55;113319;1193;98856;-69
2021/10/09 03:15:42;;;;;;;36.90;17.30;;;;;;;2.38;50.76;100567.04;113365;1195;98907;-68
2021/10/09 03:18:14;;;;;;;34.30;16.80;;;;;;;2.37;50.85;100567.60;113487;1193;113054;-68
2021/10/09 03:20:46;;;;;;;33.30;16.00;;;;;;;2.34;50.77;100566.57;113442;1193;99986;-68
2021/10/09 03:23:14;;;;;;;35.10;16.20;;;;;;;2.32;50.79;100561.72;113400;1196;107875;-68
2021/10/09 03:25:42;;;;;;;38.10;18.20;;;;;;;2.30;50.97;100566.98;113349;1196;96416;-67
2021/10/09 03:28:10;;;;;;;34.00;16.40;;;;;;;2.27;50.75;100569.14;113395;1195;98980;-68
2021/10/09 03:30:38;;;;;;;36.50;16.80;;;;;;;2.24;50.88;100569.02;113367;1193;113073;-68
2021/10/09 03:33:10;;;;;;;37.30;15.80;;;;;;;2.22;50.96;100570.44;113416;1193;98989;-66
2021/10/09 03:35:38;;;;;;;37.20;17.10;;;;;;;2.19;50.68;100568.39;113410;1195;108275;-67
2021/10/09 03:38:05;;;;;;;37.50;18.60;;;;;;;2.16;50.70;100570.52;113352;1196;98914;-67
2021/10/09 03:40:40;;;;;;;33.60;18.40;;;;;;;2.15;50.90;100575.78;113409;1195;99047;-67
2021/10/09 03:43:16;;;;;;;37.00;18.20;;;;;;;2.13;50.90;100576.15;113426;1193;112427;-68
2021/10/09 03:46:10;;;;;;;41.10;17.90;;;;;;;2.12;51.24;100577.39;113434;1193;96530;-67
2021/10/09 03:48:53;;;;;;;42.10;18.00;;;;;;;2.09;51.44;100579.16;113415;1193;108175;-66
2021/10/09 03:54:09;;;;;;;40.00;17.70;;;;;;;2.00;51.43;100587.02;113430;1193;98979;-68
2021/10/09 03:56:37;;;;;;;34.30;15.40;;;;;;;1.98;51.38;100578.98;113428;1193;113125;-67
2021/10/09 03:59:08;;;;;;;38.10;16.60;;;;;;;1.98;51.51;100584.77;113390;1193;98906;-68
2021/10/09 04:01:37;;;;;;;34.00;15.40;;;;;;;1.98;51.54;100585.63;113395;1193;108033;-68
2021/10/09 04:04:10;;;;;;;35.50;15.70;;;;;;;1.98;51.51;100581.43;113368;1193;98912;-68
2021/10/09 04:06:37;;;;;;;34.90;16.10;;;;;;;1.97;51.75;100579.34;113347;1197;98962;-69
2021/10/09 04:09:05;;;;;;;32.80;16.10;;;;;;;1.95;51.64;100579.73;113358;1195;113083;-65
2021/10/09 04:11:37;;;;;;;34.20;15.50;;;;;;;1.93;51.47;100583.77;113416;1196;96455;-67
2021/10/09 04:14:05;;;;;;;32.90;16.20;;;;;;;1.91;51.38;100582.92;113381;1196;108103;-67
2021/10/09 04:16:42;;;;;;;34.40;16.30;;;;;;;1.89;51.47;100585.21;113369;1195;96485;-67
2021/10/09 04:19:10;;;;;;;35.10;15.10;;;;;;;1.88;51.82;100586.98;113426;1193;99002;-70
2021/10/09 04:21:37;;;;;;;33.40;15.00;;;;;;;1.87;51.72;100584.70;113416;1193;113071;-69
2021/10/09 04:24:09;;;;;;;30.90;15.00;;;;;;;1.85;51.65;100581.23;113339;1195;99023;-70
2021/10/09 04:26:37;;;;;;;30.60;13.70;;;;;;;1.86;51.98;100581.05;113383;1193;108133;-68
2021/10/09 04:29:05;;;;;;;32.70;14.70;;;;;;;1.85;51.79;100582.29;113416;1193;97511;-69
2021/10/09 04:31:33;;;;;;;34.00;16.60;;;;;;;1.86;51.96;100584.72;113406;1193;96311;-71
2021/10/09 04:34:01;;;;;;;32.10;13.70;;;;;;;1.85;52.05;100586.83;113385;1193;115043;-70
2021/10/09 04:36:33;;;;;;;32.60;15.60;;;;;;;1.84;52.16;100588.42;113463;1193;96371;-70
2021/10/09 04:39:05;;;;;;;32.30;16.00;;;;;;;1.83;52.14;100586.16;113348;1193;107256;-68
2021/10/09 04:41:35;;;;;;;32.10;15.50;;;;;;;1.83;52.18;100584.77;113360;1195;98996;-67
2021/10/09 04:44:08;;;;;;;32.20;15.30;;;;;;;1.82;52.35;100583.21;113161;1196;98264;-69
2021/10/09 04:46:36;;;;;;;30.50;13.90;;;;;;;1.81;52.37;100590.75;113376;1195;115178;-68
2021/10/09 04:49:03;;;;;;;34.10;15.70;;;;;;;1.78;52.28;100590.77;113360;1194;98893;-66
2021/10/09 04:51:36;;;;;;;35.40;15.90;;;;;;;1.77;52.58;100589.73;113339;1196;108120;-67
2021/10/09 04:54:04;;;;;;;33.20;15.60;;;;;;;1.76;52.40;100593.94;113320;1196;97925;-66
2021/10/09 04:56:32;;;;;;;35.30;16.10;;;;;;;1.77;52.78;100600.05;113390;1195;96406;-64
2021/10/09 04:59:06;;;;;;;38.50;17.60;;;;;;;1.76;52.53;100598.30;113288;1195;113298;-67
2021/10/09 05:01:34;;;;;;;30.80;16.00;;;;;;;1.74;52.66;100598.34;113342;1196;98874;-67
2021/10/09 05:04:06;;;;;;;32.90;14.50;;;;;;;1.74;52.48;100602.55;113425;1196;108126;-67
2021/10/09 05:06:34;;;;;;;36.10;16.20;;;;;;;1.73;52.72;100607.80;113385;1195;96363;-68
2021/10/09 05:09:07;;;;;;;34.20;17.40;;;;;;;1.72;52.87;100609.38;113383;1195;98875;-67
2021/10/09 05:11:39;;;;;;;39.60;19.00;;;;;;;1.69;52.65;100612.04;113374;1195;111683;-68
2021/10/09 05:14:07;;;;;;;45.60;19.70;;;;;;;1.65;52.72;100612.77;113272;1196;99086;-69
2021/10/09 05:16:35;;;;;;;42.70;20.50;;;;;;;1.65;52.95;100612.60;113316;1195;108051;-68
2021/10/09 05:19:03;;;;;;;41.20;19.50;;;;;;;1.65;52.69;100614.88;113197;1196;96384;-68
2021/10/09 05:21:32;;;;;;;44.90;21.40;;;;;;;1.65;52.78;100617.49;113327;1190;97450;-68
2021/10/09 05:24:01;;;;;;;37.50;19.90;;;;;;;1.66;53.06;100617.31;113444;1195;113627;-62
2021/10/09 05:26:29;;;;;;;38.80;19.10;;;;;;;1.67;52.80;100618.88;113290;1194;98919;-66
2021/10/09 05:28:57;;;;;;;40.70;19.80;;;;;;;1.67;53.11;100622.20;113328;1196;108143;-66
2021/10/09 05:31:31;;;;;;;44.80;21.60;;;;;;;1.69;53.27;100623.40;113371;1195;96477;-67
2021/10/09 05:34:04;;;;;;;43.20;22.30;;;;;;;1.72;53.10;100626.34;113370;1196;99032;-70
2021/10/09 05:36:36;;;;;;;47.40;23.60;;;;;;;1.72;53.25;100632.46;113356;1195;114459;-68
2021/10/09 05:39:08;;;;;;;44.50;22.70;;;;;;;1.68;52.87;100631.11;113332;1196;97369;-66
2021/10/09 05:41:35;;;;;;;46.70;23.70;;;;;;;1.72;53.12;100632.11;113279;1193;108085;-67
2021/10/09 05:44:05;;;;;;;45.10;21.20;;;;;;;1.75;53.43;100632.44;113085;1196;98999;-68
2021/10/09 05:46:35;;;;;;;42.00;20.40;;;;;;;1.74;53.09;100632.45;113369;1193;98982;-67
2021/10/09 05:49:08;;;;;;;38.80;20.10;;;;;;;1.76;53.36;100635.58;113257;1195;113108;-67
2021/10/09 05:51:52;;;;;;;46.70;21.90;;;;;;;1.80;53.45;100637.11;113293;1195;96398;-68
2021/10/09 05:57:23;;;;;;;38.10;19.60;;;;;;;1.86;53.54;100645.08;112987;1193;99004;-68
2021/10/09 07:00:44;;;;;;;32.90;16.20;;;;;;;3.27;54.47;100675.16;113248;1193;98968;-69
2021/10/09 07:03:21;;;;;;;38.90;17.60;;;;;;;3.31;54.68;100678.44;113321;1193;108152;-67
2021/10/09 07:05:54;;;;;;;32.70;16.10;;;;;;;3.38;54.56;100673.42;113233;1195;98934;-69
2021/10/09 07:08:23;;;;;;;36.70;17.80;;;;;;;3.44;54.87;100674.71;113366;1193;97829;-70
2021/10/09 07:10:52;;;;;;;35.70;16.20;;;;;;;3.48;54.65;100673.39;113323;1193;112643;-67
2021/10/09 07:13:21;;;;;;;33.80;17.20;;;;;;;3.53;54.68;100670.67;113308;1193;99022;-68
2021/10/09 07:15:48;;;;;;;33.30;16.20;;;;;;;3.58;55.02;100676.55;113364;1193;108079;-69
2021/10/09 07:18:16;;;;;;;33.60;16.70;;;;;;;3.65;55.12;100679.42;113292;1193;98923;-69
2021/10/09 07:20:44;;;;;;;33.60;15.20;;;;;;;3.72;55.04;100675.42;113322;1195;99544;-71
2021/10/09 07:23:12;;;;;;;37.00;16.70;;;;;;;3.80;55.02;100675.45;113320;1193;112492;-72
2021/10/09 07:25:40;;;;;;;34.20;15.30;;;;;;;3.88;55.16;100679.69;113223;1193;99131;-66
2021/10/09 07:28:12;;;;;;;34.60;15.90;;;;;;;3.97;55.19;100674.45;113227;1193;107465;-70
2021/10/09 07:30:43;;;;;;;34.20;15.90;;;;;;;4.06;55.46;100677.44;113263;1193;98948;-70
2021/10/09 07:33:11;;;;;;;35.70;16.90;;;;;;;4.14;55.35;100676.73;113330;1193;98983;-68
2021/10/09 07:35:39;;;;;;;36.00;15.70;;;;;;;4.24;55.29;100677.06;113381;1193;112636;-67
2021/10/09 07:38:07;;;;;;;32.20;16.30;;;;;;;4.34;55.44;100679.48;113239;1193;98981;-72
2021/10/09 07:40:35;;;;;;;34.40;15.90;;;;;;;4.45;55.38;100677.52;113233;1193;108091;-70
2021/10/09 07:43:03;;;;;;;34.00;16.50;;;;;;;4.55;55.31;100679.39;113223;1194;98988;-72
2021/10/09 07:45:33;;;;;;;31.70;14.60;;;;;;;4.64;55.33;100673.93;113328;1193;98932;-81
2021/10/09 07:48:01;;;;;;;33.70;15.70;;;;;;;4.71;55.37;100676.58;113201;1193;113263;-81
2021/10/09 07:50:30;;;;;;;35.40;14.90;;;;;;;4.80;55.57;100680.42;113028;1195;98993;-75
2021/10/09 07:52:58;;;;;;;28.90;14.00;;;;;;;4.89;55.52;100670.88;113188;1195;108557;-78
2021/10/09 07:55:32;;;;;;;30.30;14.20;;;;;;;4.99;55.55;100668.03;113245;1193;98997;-77
2021/10/09 07:58:00;;;;;;;31.70;13.50;;;;;;;5.09;55.45;100672.00;113341;1193;99752;-78
2021/10/09 08:00:31;;;;;;;29.80;13.90;;;;;;;5.18;55.45;100670.90;113140;1195;112504;-75
2021/10/09 08:03:03;;;;;;;27.50;13.30;;;;;;;5.25;55.48;100675.84;113286;1193;98902;-78
2021/10/09 08:05:35;;;;;;;31.60;13.90;;;;;;;5.33;55.59;100672.81;113286;1193;107527;-78
2021/10/09 08:08:04;;;;;;;27.90;12.40;;;;;;;5.41;55.61;100671.40;113256;1193;98912;-79
2021/10/09 08:10:36;;;;;;;29.00;12.80;;;;;;;5.51;55.56;100669.39;113150;1193;98988;-77
2021/10/09 08:13:04;;;;;;;26.50;11.50;;;;;;;5.61;55.51;100669.30;113251;1193;112672;-78
2021/10/09 08:15:31;;;;;;;25.80;12.70;;;;;;;5.72;55.61;100669.19;113138;1193;99018;-79
2021/10/09 08:17:59;;;;;;;30.50;12.40;;;;;;;5.84;55.74;100673.08;113114;1195;105736;-78
2021/10/09 08:20:31;;;;;;;26.50;11.80;;;;;;;5.95;55.78;100667.84;113330;1193;99042;-80
2021/10/09 08:23:07;;;;;;;33.80;13.20;;;;;;;6.08;55.65;100670.86;114965;1193;96835;-81
2021/10/09 08:39:17;;;;;;;36.00;14.10;;;;;;;9.18;55.70;100667.81;113160;1193;112659;-84
2021/10/09 08:41:50;;;;;;;29.00;12.90;;;;;;;9.85;55.61;100661.61;113506;1193;98990;-80
2021/10/09 08:44:23;;;;;;;29.80;13.50;;;;;;;10.48;55.78;100659.52;113236;1193;107392;-85
2021/10/09 08:46:50;;;;;;;28.50;13.70;;;;;;;11.13;55.90;100656.79;113298;1193;98850;-81
2021/10/09 08:49:18;;;;;;;30.30;13.70;;;;;;;11.73;55.94;100657.14;113373;1193;98991;-80
2021/10/09 08:51:52;;;;;;;30.50;14.50;;;;;;;12.26;55.75;100652.09;113378;1193;112455;-81
2021/10/09 08:54:21;;;;;;;26.00;12.50;;;;;;;12.64;55.79;100650.69;113447;1195;98893;-81
2021/10/09 08:56:50;;;;;;;27.80;13.60;;;;;;;13.02;55.74;100650.70;113549;1193;107538;-81
2021/10/09 08:59:24;;;;;;;25.90;13.30;;;;;;;13.30;55.50;100646.42;114953;1186;96745;-78
2021/10/09 09:02:23;;;;;;;30.50;13.60;;;;;;;13.46;55.25;100647.29;115031;1193;96810;-82
2021/10/09 09:05:14;;;;;;;26.30;12.20;;;;;;;13.75;55.34;100647.01;113037;1195;112521;-82
2021/10/09 09:41:41;;;;;;;22.30;9.70;;;;;;;16.34;53.87;100639.13;113381;1193;98914;-72
2021/10/09 09:44:15;;;;;;;27.60;11.90;;;;;;;16.30;53.53;100644.98;113342;1193;98911;-73
2021/10/09 09:47:06;;;;;;;27.50;10.60;;;;;;;16.30;53.33;100638.57;113206;1195;112558;-72
2021/10/09 09:49:58;;;;;;;24.50;10.60;;;;;;;16.23;52.97;100632.26;113377;1195;98843;-71
2021/10/09 09:52:25;;;;;;;21.40;9.40;;;;;;;16.21;52.92;100637.78;113184;1195;107445;-72
2021/10/09 09:55:00;;;;;;;22.60;9.40;;;;;;;16.15;52.58;100632.42;113041;1195;99093;-72
2021/10/09 09:57:33;;;;;;;39.20;22.90;;;;;;;16.12;52.56;100634.08;113303;1195;96364;-71
2021/10/09 10:00:08;;;;;;;24.60;10.60;;;;;;;16.13;52.24;100630.77;113311;1195;112464;-72
2021/10/09 10:02:51;;;;;;;25.40;9.00;;;;;;;16.07;52.31;100629.09;113365;1195;98872;-71
2021/10/09 10:05:24;;;;;;;21.80;8.10;;;;;;;16.04;51.95;100626.22;113368;1195;107567;-70
2021/10/09 10:07:52;;;;;;;26.10;8.80;;;;;;;16.06;51.77;100626.29;113850;1195;98858;-71
2021/10/09 10:10:22;;;;;;;21.80;8.90;;;;;;;16.04;50.81;100623.02;113320;1195;96394;-71
2021/10/09 10:12:59;;;;;;;24.60;10.00;;;;;;;16.00;51.11;100623.11;113272;1195;112685;-73
2021/10/09 10:15:29;;;;;;;25.10;9.80;;;;;;;16.01;51.00;100616.27;114983;1193;96916;-73
2021/10/09 10:17:57;;;;;;;22.10;9.20;;;;;;;15.98;51.01;100616.84;113869;1195;107489;-73
2021/10/09 10:20:49;;;;;;;22.10;9.20;;;;;;;15.95;50.86;100616.31;114579;1193;96705;-71
2021/10/09 10:23:36;;;;;;;22.50;7.90;;;;;;;15.96;50.42;100617.50;113820;1194;98912;-72
2021/10/09 10:26:19;;;;;;;22.60;7.80;;;;;;;15.98;50.13;100613.81;113794;1193;112632;-72
2021/10/09 10:28:56;;;;;;;22.20;8.10;;;;;;;16.00;49.86;100613.82;113389;1195;96418;-71
2021/10/09 10:31:29;;;;;;;25.20;8.20;;;;;;;16.04;49.94;100609.97;113341;1195;107553;-72
2021/10/09 10:34:22;;;;;;;24.10;8.50;;;;;;;16.08;49.33;100606.66;113395;1193;99089;-71
2021/10/09 10:36:52;;;;;;;20.70;8.50;;;;;;;16.10;49.41;100605.09;113445;1193;96386;-72
2021/10/09 10:39:40;;;;;;;22.60;8.90;;;;;;;16.14;49.41;100603.17;113207;1194;111796;-74
2021/10/09 10:42:29;;;;;;;23.10;8.20;;;;;;;16.16;49.17;100598.34;113366;1187;99033;-72
2021/10/09 10:45:19;;;;;;;24.40;8.20;;;;;;;16.08;48.87;100597.85;113298;1195;107672;-72
2021/10/09 10:47:58;;;;;;;20.40;8.00;;;;;;;16.09;48.49;100594.08;113205;1194;96586;-72
2021/10/09 10:53:38;;;;;;;21.80;8.20;;;;;;;16.07;48.29;100582.23;113247;1193;112543;-72
2021/10/09 10:56:13;;;;;;;20.40;8.60;;;;;;;15.93;47.37;100578.52;113329;1195;98929;-73
2021/10/09 10:58:41;;;;;;;19.80;8.10;;;;;;;15.75;47.29;100578.31;113367;1195;107332;-75
2021/10/09 11:01:19;;;;;;;22.20;7.10;;;;;;;15.73;47.27;100578.11;113366;1193;99023;-73
2021/10/09 11:03:56;;;;;;;27.60;8.40;;;;;;;15.75;47.08;100576.34;113330;1195;98881;-75
2021/10/09 11:06:27;;;;;;;20.90;8.00;;;;;;;15.77;47.28;100573.92;113398;1193;113944;-74
2021/10/09 11:08:57;;;;;;;21.80;8.80;;;;;;;15.74;47.23;100575.52;113420;1193;98907;-75
2021/10/09 11:11:37;;;;;;;20.30;8.20;;;;;;;15.71;47.12;100574.13;113303;1195;106093;-73
2021/10/09 11:14:08;;;;;;;21.90;8.30;;;;;;;15.72;46.67;100574.09;113357;1193;100517;-73
2021/10/09 11:16:36;;;;;;;23.90;8.80;;;;;;;15.69;46.39;100565.51;113362;1193;96296;-71
2021/10/09 11:19:03;;;;;;;30.10;11.60;;;;;;;15.69;46.45;100565.89;113453;1193;112511;-71
2021/10/09 11:21:31;;;;;;;23.80;9.20;;;;;;;15.70;46.46;100567.41;113381;1193;98873;-72
2021/10/09 11:24:02;;;;;;;23.70;8.00;;;;;;;15.69;46.32;100562.67;113167;1194;107507;-71
2021/10/09 11:26:30;;;;;;;25.70;8.20;;;;;;;15.62;45.91;100557.23;113341;1193;99023;-72
2021/10/09 11:29:08;;;;;;;19.50;7.40;;;;;;;15.60;45.94;100556.67;112982;1195;97231;-72
2021/10/09 11:31:36;;;;;;;20.10;7.60;;;;;;;15.63;45.58;100555.38;113325;1193;112384;-71
2021/10/09 11:34:04;;;;;;;41.70;19.20;;;;;;;15.63;45.70;100551.77;113365;1193;98012;-72
2021/10/09 11:36:39;;;;;;;24.20;7.60;;;;;;;15.67;45.59;100551.70;113337;1193;108738;-72
2021/10/09 11:39:17;;;;;;;21.50;7.60;;;;;;;15.67;45.15;100549.96;113214;1195;98990;-72
2021/10/09 11:42:12;;;;;;;17.80;6.00;;;;;;;15.57;44.29;100544.14;113378;1193;98327;-72
2021/10/09 11:44:51;;;;;;;17.10;5.90;;;;;;;15.47;44.61;100544.70;113311;1193;112488;-73
2021/10/09 11:53:47;;;;;;;18.30;6.70;;;;;;;15.54;44.17;100533.62;113337;1193;98922;-72
2021/10/09 11:56:07;;;;;;;21.40;6.90;;;;;;;15.60;44.67;100535.70;113239;1198;99005;-72
2021/10/09 11:58:48;;;;;;;;;;;;;;;15.61;43.97;100536.56;113376;1193;112133;-72
2021/10/09 12:01:33;;;;;;;18.30;6.50;;;;;;;15.56;44.04;100532.10;113391;1193;97082;-71
2021/10/09 12:04:21;;;;;;;25.20;8.00;;;;;;;15.51;43.94;100531.20;113361;1193;107490;-72
2021/10/09 12:07:07;;;;;;;17.00;6.30;;;;;;;15.49;43.66;100529.55;113362;1193;97737;-72
2021/10/09 12:09:45;;;;;;;19.30;6.40;;;;;;;15.45;43.44;100532.84;113276;1193;98337;-68
2021/10/09 12:12:21;;;;;;;18.60;6.20;;;;;;;15.42;43.37;100531.30;113236;1195;112441;-72
2021/10/09 12:14:56;;;;;;;17.60;5.20;;;;;;;15.40;43.31;100527.99;113169;1194;99007;-72
2021/10/09 12:17:37;;;;;;;13.80;5.00;;;;;;;15.34;42.43;100526.44;113333;1193;106600;-72
2021/10/09 12:20:10;;;;;;;19.20;5.40;;;;;;;15.33;42.51;100524.34;113352;1193;99066;-74
2021/10/09 12:22:52;;;;;;;13.90;5.10;;;;;;;15.35;42.78;100525.30;113429;1193;98990;-73
2021/10/09 12:25:27;;;;;;;16.00;5.10;;;;;;;15.36;42.74;100517.72;113347;1193;112651;-74
2021/10/09 12:28:01;;;;;;;25.10;9.70;;;;;;;15.30;42.44;100516.88;113404;1193;98996;-74
2021/10/09 12:30:46;;;;;;;14.00;5.00;;;;;;;15.25;42.47;100511.02;113205;1195;107258;-75
2021/10/09 12:33:43;;;;;;;21.70;5.50;;;;;;;15.18;42.36;100516.61;113171;1195;99011;-73
2021/10/09 12:36:38;;;;;;;13.90;5.40;;;;;;;15.17;42.23;100514.36;113170;1195;96605;-72
2021/10/09 12:39:29;;;;;;;17.60;5.30;;;;;;;15.23;42.15;100502.43;113287;1193;112518;-73
2021/10/09 12:41:57;;;;;;;16.80;5.20;;;;;;;15.18;41.96;100508.96;113345;1193;98889;-72
2021/10/09 12:44:28;;;;;;;13.40;4.60;;;;;;;15.09;41.73;100507.96;113407;1193;107416;-74
2021/10/09 12:46:55;;;;;;;13.40;5.20;;;;;;;15.02;41.59;100510.25;113342;1193;98981;-72
2021/10/09 12:49:23;;;;;;;14.40;4.40;;;;;;;15.00;41.63;100505.89;113428;1193;98885;-73
2021/10/09 12:51:51;;;;;;;17.10;5.30;;;;;;;14.95;41.44;100505.92;113374;1193;112550;-74
2021/10/09 12:54:24;;;;;;;15.40;4.80;;;;;;;14.96;41.53;100498.69;113308;1195;96421;-72
2021/10/09 12:56:56;;;;;;;13.70;4.70;;;;;;;14.98;41.20;100504.25;113222;1195;107535;-73
2021/10/09 12:59:24;;;;;;;15.60;4.70;;;;;;;14.96;41.05;100500.85;113209;1193;96456;-72
2021/10/09 13:01:52;;;;;;;13.60;4.40;;;;;;;14.86;41.04;100505.94;113394;1193;98979;-71
2021/10/09 13:04:20;;;;;;;18.30;5.10;;;;;;;14.83;41.01;100498.29;113367;1193;112465;-71
2021/10/09 13:06:51;;;;;;;13.20;4.40;;;;;;;14.86;40.68;100495.06;113419;1193;98968;-73
2021/10/09 13:09:19;;;;;;;13.10;4.40;;;;;;;14.88;40.60;100494.68;113302;1193;107495;-72
2021/10/09 13:11:50;;;;;;;17.90;5.60;;;;;;;14.93;40.84;100495.12;113301;1193;98913;-72
2021/10/09 13:14:21;;;;;;;17.80;5.10;;;;;;;14.96;40.72;100492.62;113236;1195;98934;-72
2021/10/09 13:16:51;;;;;;;16.90;5.90;;;;;;;14.93;40.43;100488.00;113232;1195;112534;-71
2021/10/09 13:19:19;;;;;;;14.00;4.70;;;;;;;14.89;40.49;100491.45;113182;1195;98937;-72
2021/10/09 13:21:47;;;;;;;20.00;7.00;;;;;;;14.89;40.35;100487.55;113275;1195;107421;-71
2021/10/09 13:24:15;;;;;;;28.10;11.80;;;;;;;14.82;40.19;100490.73;113199;1196;96480;-72
2021/10/09 13:26:43;;;;;;;26.90;9.00;;;;;;;14.79;40.30;100484.84;113391;1195;98905;-71
2021/10/09 13:29:11;;;;;;;20.60;6.30;;;;;;;14.77;40.16;100487.27;113200;1195;112534;-71
2021/10/09 13:31:39;;;;;;;19.50;6.00;;;;;;;14.76;40.03;100486.25;113397;1193;97356;-72
2021/10/09 13:34:07;;;;;;;19.20;6.60;;;;;;;14.73;39.85;100484.89;113356;1186;107516;-73
2021/10/09 13:36:40;;;;;;;20.50;6.90;;;;;;;14.72;39.96;100490.11;113389;1193;98988;-72
2021/10/09 13:39:08;;;;;;;25.50;6.90;;;;;;;14.75;39.95;100484.74;113584;1193;99014;-72
2021/10/09 13:41:36;;;;;;;19.50;5.80;;;;;;;14.79;39.86;100481.82;113400;1193;112547;-71
2021/10/09 13:44:06;;;;;;;14.30;5.50;;;;;;;14.82;39.77;100486.04;113429;1193;98986;-72